createdAt,value
2022-08-29T00:00:41.253Z,62.40
2022-08-29T00:03:16.155Z,62.80
2022-08-29T00:05:53.341Z,63.30
2022-08-29T00:08:29.602Z,63.70
2022-08-29T00:11:06.770Z,64.00
2022-08-29T00:13:42.397Z,64.20
2022-08-29T00:16:17.540Z,64.50
2022-08-29T00:18:52.496Z,64.80
2022-08-29T00:21:27.471Z,65.10
2022-08-29T00:24:02.746Z,65.40
2022-08-29T00:26:37.744Z,65.60
2022-08-29T00:29:12.748Z,65.90
2022-08-29T00:31:47.785Z,66.20
2022-08-29T00:34:22.810Z,66.60
2022-08-29T00:36:57.838Z,67.10
2022-08-29T00:39:33.070Z,67.30
2022-08-29T00:42:09.689Z,67.80
2022-08-29T00:44:45.110Z,68.20
2022-08-29T00:47:26.309Z,68.70
2022-08-29T00:50:03.868Z,68.90
2022-08-29T00:52:44.808Z,69.30
2022-08-29T00:55:24.718Z,69.60
2022-08-29T00:58:06.955Z,70.20
2022-08-29T01:00:43.948Z,70.60
2022-08-29T01:03:18.913Z,70.70
2022-08-29T01:05:54.111Z,70.90
2022-08-29T01:08:30.297Z,71.00
2022-08-29T01:11:24.715Z,71.10
2022-08-29T01:14:03.323Z,71.20
2022-08-29T01:16:38.933Z,71.30
2022-08-29T01:19:43.402Z,71.40
2022-08-29T01:22:42.109Z,72.10
2022-08-29T01:25:22.818Z,71.90
2022-08-29T01:28:13.182Z,72.30
2022-08-29T01:31:07.411Z,72.40
2022-08-29T01:33:45.770Z,72.40
2022-08-29T01:36:54.120Z,72.30
2022-08-29T01:39:34.508Z,72.40
2022-08-29T01:42:14.974Z,72.20
2022-08-29T01:44:58.404Z,72.30
2022-08-29T01:47:35.293Z,72.30
2022-08-29T01:50:15.947Z,72.50
2022-08-29T01:52:50.826Z,72.70
2022-08-29T01:55:25.681Z,72.80
2022-08-29T01:58:00.653Z,73.00
2022-08-29T02:00:36.185Z,73.10
2022-08-29T02:03:11.121Z,73.30
2022-08-29T02:05:47.747Z,73.50
2022-08-29T02:08:22.613Z,73.50
2022-08-29T02:10:58.480Z,73.70
2022-08-29T02:13:33.401Z,74.00
2022-08-29T02:16:09.150Z,74.30
2022-08-29T02:18:45.791Z,74.40
2022-08-29T02:21:25.329Z,74.40
2022-08-29T02:24:21.297Z,74.40
2022-08-29T02:27:00.161Z,74.50
2022-08-29T02:29:37.750Z,74.50
2022-08-29T02:32:16.929Z,74.60
2022-08-29T02:34:51.815Z,74.50
2022-08-29T02:37:26.671Z,74.50
2022-08-29T02:40:01.837Z,74.40
2022-08-29T02:42:36.807Z,74.50
2022-08-29T02:45:12.097Z,74.60
2022-08-29T02:47:48.826Z,74.70
2022-08-29T02:50:25.467Z,74.80
2022-08-29T02:53:00.495Z,74.80
2022-08-29T02:55:35.464Z,75.00
2022-08-29T02:58:10.550Z,75.10
2022-08-29T03:00:45.858Z,75.10
2022-08-29T03:03:21.164Z,75.20
2022-08-29T03:05:56.660Z,75.30
2022-08-29T03:08:31.634Z,75.40
2022-08-29T03:11:06.925Z,75.50
2022-08-29T03:13:41.905Z,75.70
2022-08-29T03:16:17.053Z,75.60
2022-08-29T03:18:51.986Z,75.80
2022-08-29T03:21:27.722Z,75.90
2022-08-29T03:24:03.047Z,76.00
2022-08-29T03:26:38.001Z,76.10
2022-08-29T03:29:13.003Z,76.30
2022-08-29T03:31:48.152Z,76.50
2022-08-29T03:34:23.215Z,76.50
2022-08-29T03:36:59.310Z,76.50
2022-08-29T03:39:37.850Z,76.40
2022-08-29T03:42:13.321Z,76.40
2022-08-29T03:44:48.318Z,76.60
2022-08-29T03:47:23.485Z,76.60
2022-08-29T03:49:58.525Z,76.60
2022-08-29T03:52:33.641Z,76.70
2022-08-29T03:55:10.000Z,76.70
2022-08-29T03:57:45.230Z,76.70
2022-08-29T04:00:20.414Z,76.60
2022-08-29T04:02:55.801Z,76.60
2022-08-29T04:05:33.924Z,76.40
2022-08-29T04:08:09.023Z,76.80
2022-08-29T04:10:44.130Z,76.60
2022-08-29T04:13:19.123Z,76.50
2022-08-29T04:15:54.242Z,76.40
2022-08-29T04:18:29.282Z,76.30
2022-08-29T04:21:05.951Z,76.30
2022-08-29T04:23:42.257Z,76.40
2022-08-29T04:26:36.010Z,76.50
2022-08-29T04:29:13.897Z,76.50
2022-08-29T04:31:48.829Z,77.20
2022-08-29T04:34:23.894Z,76.90
2022-08-29T04:37:00.033Z,77.10
2022-08-29T04:39:35.314Z,77.20
2022-08-29T04:42:10.348Z,77.30
2022-08-29T04:44:45.835Z,77.30
2022-08-29T04:47:22.231Z,77.30
2022-08-29T04:49:57.581Z,77.20
2022-08-29T04:52:32.873Z,77.10
2022-08-29T04:55:11.524Z,77.10
2022-08-29T04:57:47.636Z,76.90
2022-08-29T05:00:28.029Z,77.00
2022-08-29T05:03:03.470Z,76.80
2022-08-29T05:05:38.547Z,76.60
2022-08-29T05:08:14.018Z,76.60
2022-08-29T05:10:49.338Z,76.40
2022-08-29T05:13:24.393Z,76.30
2022-08-29T05:16:00.210Z,76.20
2022-08-29T05:18:36.586Z,76.10
2022-08-29T05:21:12.385Z,76.00
2022-08-29T05:23:48.042Z,75.80
2022-08-29T05:26:23.767Z,75.60
2022-08-29T05:28:58.901Z,75.50
2022-08-29T05:31:34.141Z,75.50
2022-08-29T05:34:32.785Z,75.60
2022-08-29T05:37:10.857Z,75.90
2022-08-29T05:39:47.291Z,76.00
2022-08-29T05:42:23.169Z,75.90
2022-08-29T05:44:58.278Z,75.30
2022-08-29T05:47:33.798Z,74.70
2022-08-29T05:50:11.680Z,74.10
2022-08-29T05:52:46.692Z,73.70
2022-08-29T05:55:21.848Z,73.00
2022-08-29T05:57:56.889Z,72.40
2022-08-29T06:00:31.938Z,71.40
2022-08-29T06:03:06.941Z,70.70
2022-08-29T06:05:42.435Z,69.90
2022-08-29T06:08:18.740Z,69.30
2022-08-29T06:10:53.786Z,67.60
2022-08-29T06:13:28.734Z,67.00
2022-08-29T06:16:03.770Z,66.90
2022-08-29T06:18:39.015Z,66.30
2022-08-29T06:21:14.740Z,65.10
2022-08-29T06:23:50.263Z,63.30
2022-08-29T06:26:26.507Z,60.40
2022-08-29T06:29:06.864Z,60.90
2022-08-29T06:31:42.137Z,60.30
2022-08-29T06:34:17.187Z,60.00
2022-08-29T06:36:52.212Z,59.60
2022-08-29T06:39:27.167Z,59.50
2022-08-29T06:42:02.197Z,59.70
2022-08-29T06:44:44.301Z,59.50
2022-08-29T06:47:20.531Z,59.10
2022-08-29T06:49:55.549Z,58.50
2022-08-29T06:52:30.555Z,57.90
2022-08-29T06:55:11.502Z,57.70
2022-08-29T06:57:47.720Z,57.00
2022-08-29T07:00:24.632Z,56.40
2022-08-29T07:02:59.705Z,55.50
2022-08-29T07:05:34.739Z,55.10
2022-08-29T07:08:09.772Z,54.80
2022-08-29T07:10:45.657Z,54.00
2022-08-29T07:13:20.986Z,53.80
2022-08-29T07:15:56.178Z,53.80
2022-08-29T07:18:31.299Z,53.90
2022-08-29T07:21:09.616Z,53.60
2022-08-29T07:23:44.764Z,52.80
2022-08-29T07:26:25.113Z,52.70
2022-08-29T07:29:04.186Z,52.50
2022-08-29T07:31:39.509Z,52.30
2022-08-29T07:34:15.415Z,51.50
2022-08-29T07:36:50.851Z,50.80
2022-08-29T07:39:26.134Z,50.70
2022-08-29T07:42:01.253Z,50.60
2022-08-29T07:44:36.273Z,50.40
2022-08-29T07:47:11.400Z,50.50
2022-08-29T07:49:46.639Z,50.30
2022-08-29T07:52:21.935Z,49.80
2022-08-29T07:54:56.922Z,48.90
2022-08-29T07:57:32.253Z,49.00
2022-08-29T08:00:12.358Z,49.50
2022-08-29T08:02:47.712Z,48.90
2022-08-29T08:05:23.090Z,48.30
2022-08-29T08:08:03.366Z,48.40
2022-08-29T08:10:43.735Z,48.30
2022-08-29T08:13:19.975Z,48.30
2022-08-29T08:15:55.562Z,47.90
2022-08-29T08:18:30.542Z,48.00
2022-08-29T08:21:06.180Z,47.50
2022-08-29T08:23:42.321Z,47.10
2022-08-29T08:26:17.356Z,47.00
2022-08-29T08:28:53.405Z,46.70
2022-08-29T08:31:31.071Z,45.20
2022-08-29T08:34:06.942Z,45.20
2022-08-29T08:36:44.859Z,44.50
2022-08-29T08:39:20.522Z,44.40
2022-08-29T08:42:14.886Z,44.50
2022-08-29T08:45:02.517Z,44.40
2022-08-29T08:48:10.169Z,44.40
2022-08-29T08:50:56.192Z,44.10
2022-08-29T08:53:48.442Z,43.60
2022-08-29T08:56:33.290Z,43.50
2022-08-29T08:59:32.611Z,43.20
2022-08-29T09:02:35.327Z,43.10
2022-08-29T09:05:37.077Z,42.70
2022-08-29T09:09:01.685Z,42.50
2022-08-29T09:11:55.909Z,42.30
2022-08-29T09:14:54.167Z,42.50
2022-08-29T09:17:58.149Z,41.50
2022-08-29T09:20:38.865Z,41.20
2022-08-29T09:23:24.955Z,40.80
2022-08-29T09:25:59.934Z,41.00
2022-08-29T09:28:35.316Z,40.70
2022-08-29T09:31:25.418Z,40.50
2022-08-29T09:34:11.770Z,40.50
2022-08-29T09:36:53.241Z,40.20
2022-08-29T09:39:32.971Z,39.90
2022-08-29T09:42:21.530Z,40.00
2022-08-29T09:45:02.909Z,39.80
2022-08-29T09:47:38.363Z,39.60
2022-08-29T09:50:25.034Z,39.40
2022-08-29T09:53:03.257Z,38.70
2022-08-29T09:55:45.513Z,39.00
2022-08-29T09:58:20.451Z,38.40
2022-08-29T10:01:28.118Z,38.40
2022-08-29T10:04:06.713Z,37.90
2022-08-29T10:06:47.282Z,37.80
2022-08-29T10:09:28.848Z,37.20
2022-08-29T10:12:14.747Z,37.20
2022-08-29T10:14:56.633Z,36.80
2022-08-29T10:18:11.798Z,36.10
2022-08-29T10:21:05.256Z,35.10
2022-08-29T10:24:29.219Z,35.50
2022-08-29T10:27:16.303Z,35.50
2022-08-29T10:30:08.057Z,35.00
2022-08-29T10:33:12.318Z,34.80
2022-08-29T10:36:18.269Z,34.90
2022-08-29T10:39:33.957Z,34.40
2022-08-29T10:42:15.999Z,34.30
2022-08-29T10:45:23.588Z,33.90
2022-08-29T10:48:21.952Z,33.90
2022-08-29T10:51:22.967Z,34.00
2022-08-29T10:54:09.205Z,33.10
2022-08-29T10:56:48.529Z,32.80
2022-08-29T11:00:05.837Z,32.50
2022-08-29T11:02:53.186Z,32.80
2022-08-29T11:05:35.891Z,32.40
2022-08-29T11:08:23.027Z,32.20
2022-08-29T11:10:58.562Z,32.10
2022-08-29T11:13:48.449Z,32.30
2022-08-29T11:16:36.863Z,32.10
2022-08-29T11:19:25.198Z,31.70
2022-08-29T11:22:20.943Z,31.90
2022-08-29T11:25:13.726Z,31.90
2022-08-29T11:28:30.131Z,31.70
2022-08-29T11:31:12.393Z,31.30
2022-08-29T11:34:24.423Z,31.30
2022-08-29T11:37:05.810Z,31.40
2022-08-29T11:39:58.899Z,31.40
2022-08-29T11:42:54.436Z,30.90
2022-08-29T11:45:37.538Z,30.60
2022-08-29T11:48:40.157Z,30.20
2022-08-29T11:51:38.451Z,31.10
2022-08-29T11:54:26.137Z,30.30
2022-08-29T11:57:01.777Z,30.30
2022-08-29T11:59:48.999Z,30.50
2022-08-29T12:02:30.176Z,30.70
2022-08-29T12:05:17.179Z,31.10
2022-08-29T12:08:02.854Z,31.10
2022-08-29T12:10:58.046Z,30.20
2022-08-29T12:13:51.381Z,31.20
2022-08-29T12:16:47.371Z,30.60
2022-08-29T12:20:05.474Z,29.40
2022-08-29T12:23:15.035Z,29.80
2022-08-29T12:26:21.513Z,30.20
2022-08-29T12:29:00.799Z,29.50
2022-08-29T12:32:22.465Z,29.70
2022-08-29T12:35:17.421Z,29.50
2022-08-29T12:38:42.028Z,28.70
2022-08-29T12:41:35.117Z,29.20
2022-08-29T12:44:16.534Z,28.90
2022-08-29T12:47:01.124Z,29.10
2022-08-29T12:49:51.484Z,29.20
2022-08-29T12:52:34.041Z,28.30
2022-08-29T12:55:29.085Z,29.10
2022-08-29T12:58:04.443Z,28.80
2022-08-29T13:00:40.450Z,28.80
2022-08-29T13:03:21.303Z,28.40
2022-08-29T13:06:11.429Z,28.00
2022-08-29T13:08:49.203Z,27.50
2022-08-29T13:11:28.638Z,28.70
2022-08-29T13:14:10.698Z,28.60
2022-08-29T13:16:45.649Z,27.10
2022-08-29T13:19:24.721Z,27.50
2022-08-29T13:22:04.222Z,27.50
2022-08-29T13:24:39.338Z,27.60
2022-08-29T13:27:21.591Z,28.70
2022-08-29T13:30:01.286Z,28.60
2022-08-29T13:32:36.355Z,28.10
2022-08-29T13:35:14.413Z,28.50
2022-08-29T13:38:09.345Z,27.80
2022-08-29T13:40:51.461Z,26.90
2022-08-29T13:43:35.400Z,26.60
2022-08-29T13:46:14.994Z,27.20
2022-08-29T13:49:02.593Z,27.10
2022-08-29T13:51:37.527Z,27.30
2022-08-29T13:54:12.589Z,26.20
2022-08-29T13:56:50.681Z,26.10
2022-08-29T13:59:30.355Z,26.90
2022-08-29T14:02:10.508Z,27.00
2022-08-29T14:04:49.569Z,27.00
2022-08-29T14:07:29.538Z,27.30
2022-08-29T14:10:08.312Z,27.60
2022-08-29T14:12:44.451Z,27.10
2022-08-29T14:15:19.663Z,28.10
2022-08-29T14:17:54.732Z,26.80
2022-08-29T14:20:29.834Z,26.90
2022-08-29T14:23:05.150Z,27.10
2022-08-29T14:25:40.233Z,27.80
2022-08-29T14:28:16.228Z,27.60
2022-08-29T14:30:52.709Z,26.20
2022-08-29T14:33:27.786Z,26.90
2022-08-29T14:36:03.598Z,27.80
2022-08-29T14:38:39.250Z,27.00
2022-08-29T14:41:14.151Z,26.70
2022-08-29T14:43:49.199Z,26.10
2022-08-29T14:46:24.225Z,26.40
2022-08-29T14:49:01.099Z,26.50
2022-08-29T14:51:36.054Z,26.00
2022-08-29T14:54:11.658Z,27.30
2022-08-29T14:56:49.109Z,26.30
2022-08-29T14:59:25.583Z,26.40
2022-08-29T15:02:01.214Z,26.60
2022-08-29T15:04:37.663Z,25.90
2022-08-29T15:07:17.689Z,27.00
2022-08-29T15:09:52.823Z,26.00
2022-08-29T15:12:29.002Z,25.80
2022-08-29T15:15:04.758Z,25.50
2022-08-29T15:17:40.633Z,26.30
2022-08-29T15:20:35.399Z,26.00
2022-08-29T15:23:12.222Z,26.60
2022-08-29T15:25:51.885Z,25.80
2022-08-29T15:28:27.611Z,25.40
2022-08-29T15:31:02.735Z,24.90
2022-08-29T15:33:40.183Z,24.50
2022-08-29T15:36:15.271Z,26.10
2022-08-29T15:38:50.345Z,26.30
2022-08-29T15:41:25.374Z,25.60
2022-08-29T15:44:01.809Z,25.00
2022-08-29T15:46:38.009Z,25.00
2022-08-29T15:49:13.294Z,25.40
2022-08-29T15:51:48.501Z,25.10
2022-08-29T15:54:25.141Z,25.40
2022-08-29T15:57:00.102Z,25.30
2022-08-29T15:59:57.123Z,26.10
2022-08-29T16:02:30.550Z,25.80
2022-08-29T16:05:06.593Z,26.40
2022-08-29T16:07:42.161Z,25.70
2022-08-29T16:10:17.219Z,26.00
2022-08-29T16:12:52.293Z,26.20
2022-08-29T16:15:31.058Z,25.80
2022-08-29T16:18:06.767Z,26.30
2022-08-29T16:20:42.235Z,25.60
2022-08-29T16:23:17.381Z,26.00
2022-08-29T16:25:53.034Z,26.00
2022-08-29T16:28:29.359Z,25.80
2022-08-29T16:31:05.135Z,24.80
2022-08-29T16:33:41.301Z,26.20
2022-08-29T16:36:17.742Z,25.30
2022-08-29T16:38:56.228Z,25.70
2022-08-29T16:41:31.646Z,25.10
2022-08-29T16:44:08.224Z,26.00
2022-08-29T16:46:43.131Z,25.40
2022-08-29T16:49:18.762Z,26.00
2022-08-29T16:51:53.788Z,25.40
2022-08-29T16:54:28.828Z,26.10
2022-08-29T16:57:04.068Z,25.70
2022-08-29T16:59:39.016Z,25.60
2022-08-29T17:02:14.065Z,25.90
2022-08-29T17:04:49.726Z,25.90
2022-08-29T17:07:33.402Z,26.30
2022-08-29T17:10:08.830Z,26.20
2022-08-29T17:12:43.798Z,26.00
2022-08-29T17:15:18.776Z,26.10
2022-08-29T17:17:53.710Z,25.60
2022-08-29T17:20:28.747Z,26.30
2022-08-29T17:23:03.634Z,26.40
2022-08-29T17:25:40.513Z,26.30
2022-08-29T17:28:19.025Z,26.50
2022-08-29T17:30:55.596Z,26.40
2022-08-29T17:33:30.515Z,26.70
2022-08-29T17:36:07.659Z,27.10
2022-08-29T17:38:45.632Z,27.30
2022-08-29T17:41:22.134Z,26.90
2022-08-29T17:43:57.772Z,26.90
2022-08-29T17:46:32.937Z,26.90
2022-08-29T17:49:10.309Z,27.20
2022-08-29T17:51:53.397Z,27.50
2022-08-29T17:54:28.828Z,27.80
2022-08-29T17:57:04.303Z,27.90
2022-08-29T17:59:39.186Z,27.80
2022-08-29T18:02:15.364Z,28.00
2022-08-29T18:04:51.515Z,27.90
2022-08-29T18:07:28.653Z,28.00
2022-08-29T18:10:10.602Z,28.20
2022-08-29T18:12:46.807Z,28.10
2022-08-29T18:15:21.842Z,28.50
2022-08-29T18:17:58.684Z,28.80
2022-08-29T18:20:33.572Z,28.60
2022-08-29T18:23:08.543Z,28.70
2022-08-29T18:25:43.477Z,28.80
2022-08-29T18:28:18.949Z,29.00
2022-08-29T18:30:54.678Z,28.90
2022-08-29T18:33:44.293Z,28.80
2022-08-29T18:36:25.099Z,29.00
2022-08-29T18:39:01.843Z,29.00
2022-08-29T18:41:37.041Z,28.90
2022-08-29T18:44:12.462Z,29.00
2022-08-29T18:46:48.167Z,29.00
2022-08-29T18:49:46.197Z,29.10
2022-08-29T18:52:21.579Z,29.20
2022-08-29T18:54:56.513Z,29.30
2022-08-29T18:57:31.446Z,29.30
2022-08-29T19:00:08.063Z,29.50
2022-08-29T19:02:43.381Z,29.50
2022-08-29T19:05:19.559Z,29.50
2022-08-29T19:07:54.915Z,29.50
2022-08-29T19:10:31.658Z,29.50
2022-08-29T19:13:08.126Z,29.50
2022-08-29T19:15:48.454Z,29.50
2022-08-29T19:18:23.443Z,29.60
2022-08-29T19:21:07.676Z,29.70
2022-08-29T19:23:47.145Z,29.80
2022-08-29T19:26:33.015Z,29.90
2022-08-29T19:29:15.599Z,30.00
2022-08-29T19:31:50.533Z,30.00
2022-08-29T19:34:25.573Z,30.30
2022-08-29T19:37:00.502Z,30.30
2022-08-29T19:39:35.613Z,30.50
2022-08-29T19:42:10.477Z,30.70
2022-08-29T19:44:51.330Z,31.00
2022-08-29T19:47:26.240Z,31.10
2022-08-29T19:50:01.752Z,31.30
2022-08-29T19:52:37.770Z,31.40
2022-08-29T19:55:17.497Z,31.40
2022-08-29T19:57:53.088Z,31.70
2022-08-29T20:00:27.979Z,31.70
2022-08-29T20:03:07.789Z,31.70
2022-08-29T20:05:43.154Z,31.70
2022-08-29T20:08:18.053Z,31.80
2022-08-29T20:10:56.069Z,31.90
2022-08-29T20:13:34.863Z,32.00
2022-08-29T20:16:14.137Z,32.00
2022-08-29T20:18:52.821Z,32.10
2022-08-29T20:21:28.048Z,32.30
2022-08-29T20:24:04.712Z,32.40
2022-08-29T20:26:40.238Z,32.60
2022-08-29T20:29:17.009Z,32.60
2022-08-29T20:31:52.138Z,32.60
2022-08-29T20:34:29.663Z,32.80
2022-08-29T20:37:10.395Z,32.90
2022-08-29T20:39:47.381Z,33.00
2022-08-29T20:42:24.682Z,33.20
2022-08-29T20:45:00.338Z,33.20
2022-08-29T20:47:36.255Z,33.30
2022-08-29T20:50:11.235Z,33.50
2022-08-29T20:52:47.204Z,33.70
2022-08-29T20:55:22.909Z,33.80
2022-08-29T20:57:57.793Z,33.80
2022-08-29T21:00:32.749Z,33.90
2022-08-29T21:03:25.995Z,34.00
2022-08-29T21:06:00.892Z,34.10
2022-08-29T21:08:37.576Z,34.20
2022-08-29T21:11:14.498Z,34.20
2022-08-29T21:13:53.096Z,34.30
2022-08-29T21:16:28.628Z,34.50
2022-08-29T21:19:09.582Z,34.50
2022-08-29T21:21:45.195Z,34.60
2022-08-29T21:24:20.489Z,34.50
2022-08-29T21:26:56.711Z,34.50
2022-08-29T21:29:31.613Z,34.70
2022-08-29T21:32:06.527Z,34.80
2022-08-29T21:34:41.398Z,34.90
2022-08-29T21:37:16.381Z,35.20
2022-08-29T21:39:51.354Z,35.20
2022-08-29T21:42:26.227Z,35.20
2022-08-29T21:45:01.152Z,35.30
2022-08-29T21:47:37.206Z,35.40
2022-08-29T21:50:12.061Z,35.50
2022-08-29T21:52:48.346Z,35.60
2022-08-29T21:55:23.461Z,35.80
2022-08-29T21:57:59.822Z,36.00
2022-08-29T22:00:37.018Z,36.00
2022-08-29T22:03:13.033Z,36.10
2022-08-29T22:05:48.405Z,36.10
2022-08-29T22:08:23.639Z,36.20
2022-08-29T22:11:00.494Z,36.20
2022-08-29T22:13:35.343Z,36.30
2022-08-29T22:16:29.514Z,36.50
2022-08-29T22:19:14.873Z,36.60
2022-08-29T22:21:54.484Z,36.80
2022-08-29T22:24:29.410Z,36.90
2022-08-29T22:27:06.365Z,37.10
2022-08-29T22:29:41.223Z,37.10
2022-08-29T22:32:16.142Z,37.40
2022-08-29T22:34:51.041Z,37.40
2022-08-29T22:37:29.850Z,37.60
2022-08-29T22:40:08.936Z,37.70
2022-08-29T22:42:45.544Z,37.90
2022-08-29T22:45:20.497Z,38.20
2022-08-29T22:47:55.366Z,38.40
2022-08-29T22:50:30.290Z,38.50
2022-08-29T22:53:05.190Z,38.60
2022-08-29T22:55:40.041Z,38.70
2022-08-29T22:58:14.899Z,38.80
2022-08-29T23:00:49.850Z,39.10
2022-08-29T23:03:24.706Z,39.30
2022-08-29T23:05:59.602Z,39.50
2022-08-29T23:08:34.566Z,39.70
2022-08-29T23:11:09.431Z,39.70
2022-08-29T23:13:46.172Z,39.80
2022-08-29T23:16:23.020Z,40.00
2022-08-29T23:18:58.013Z,40.10
2022-08-29T23:21:34.039Z,40.10
2022-08-29T23:24:08.992Z,40.10
2022-08-29T23:26:44.103Z,40.30
2022-08-29T23:29:19.562Z,40.60
2022-08-29T23:31:54.512Z,40.70
2022-08-29T23:34:32.206Z,40.80
2022-08-29T23:37:07.076Z,40.80
2022-08-29T23:39:41.947Z,41.00
2022-08-29T23:42:16.829Z,41.30
2022-08-29T23:44:51.756Z,41.50
2022-08-29T23:47:26.625Z,41.80
2022-08-29T23:50:03.413Z,42.00
2022-08-29T23:52:38.263Z,42.00
2022-08-29T23:55:16.380Z,42.10
2022-08-29T23:57:51.310Z,42.20
